createdAt,value
2022-11-10T00:00:11.640Z,46.89
2022-11-10T00:01:14.096Z,93.43
2022-11-10T00:02:16.462Z,99.22
2022-11-10T00:03:19.144Z,61.88
2022-11-10T00:04:22.025Z,69.32
2022-11-10T00:05:24.695Z,63.97
2022-11-10T00:06:27.247Z,66.08
2022-11-10T00:07:29.606Z,27.67
2022-11-10T00:08:32.270Z,77.37
2022-11-10T00:09:34.927Z,63.17
2022-11-10T00:10:37.621Z,55.97
2022-11-10T00:11:40.080Z,67.29
2022-11-10T00:12:42.443Z,81.91
2022-11-10T00:13:44.803Z,88.06
2022-11-10T00:14:47.253Z,77.67
2022-11-10T00:15:49.674Z,63.00
2022-11-10T00:16:52.130Z,65.93
2022-11-10T00:17:54.484Z,66.49
2022-11-10T00:18:56.847Z,76.78
2022-11-10T00:19:59.202Z,55.97
2022-11-10T00:21:01.906Z,50.25
2022-11-10T00:22:04.365Z,72.67
2022-11-10T00:23:06.721Z,80.14
2022-11-10T00:24:09.153Z,60.91
2022-11-10T00:25:11.511Z,79.59
2022-11-10T00:26:14.319Z,62.34
2022-11-10T00:27:16.771Z,102.69
2022-11-10T00:28:19.224Z,79.82
2022-11-10T00:29:21.577Z,107.22
2022-11-10T00:30:24.032Z,81.51
2022-11-10T00:31:26.435Z,58.59
2022-11-10T00:32:28.805Z,109.83
2022-11-10T00:33:31.264Z,86.34
2022-11-10T00:34:33.622Z,79.19
2022-11-10T00:35:36.093Z,59.20
2022-11-10T00:36:38.897Z,107.51
2022-11-10T00:37:41.257Z,54.66
2022-11-10T00:38:43.619Z,76.05
2022-11-10T00:39:46.072Z,77.13
2022-11-10T00:40:48.626Z,61.38
2022-11-10T00:41:51.012Z,102.32
2022-11-10T00:42:53.469Z,69.77
2022-11-10T00:43:55.828Z,67.79
2022-11-10T00:44:58.184Z,91.75
2022-11-10T00:46:00.535Z,56.48
2022-11-10T00:47:02.914Z,70.81
2022-11-10T00:48:05.272Z,96.57
2022-11-10T00:49:07.625Z,84.75
2022-11-10T00:50:10.490Z,61.28
2022-11-10T00:51:13.348Z,48.39
2022-11-10T00:52:15.832Z,56.73
2022-11-10T00:53:18.404Z,80.85
2022-11-10T00:54:21.148Z,77.64
2022-11-10T00:55:23.601Z,62.77
2022-11-10T00:56:26.163Z,88.96
2022-11-10T00:57:28.560Z,98.52
2022-11-10T00:58:30.931Z,48.63
2022-11-10T00:59:33.395Z,66.98
2022-11-10T01:00:35.949Z,58.19
2022-11-10T01:01:38.356Z,82.75
2022-11-10T01:02:40.993Z,67.88
2022-11-10T01:03:43.351Z,88.91
2022-11-10T01:04:45.828Z,91.62
2022-11-10T01:05:48.259Z,82.11
2022-11-10T01:06:50.769Z,62.44
2022-11-10T01:07:53.414Z,99.77
2022-11-10T01:08:55.892Z,86.53
2022-11-10T01:09:58.340Z,53.15
2022-11-10T01:11:01.103Z,86.68
2022-11-10T01:12:03.559Z,59.71
2022-11-10T01:13:06.051Z,70.00
2022-11-10T01:14:08.406Z,88.19
2022-11-10T01:15:10.767Z,47.37
2022-11-10T01:16:13.526Z,55.98
2022-11-10T01:17:15.889Z,83.04
2022-11-10T01:18:18.290Z,92.06
2022-11-10T01:19:20.644Z,76.17
2022-11-10T01:20:23.303Z,70.22
2022-11-10T01:21:25.673Z,51.57
2022-11-10T01:22:28.035Z,86.73
2022-11-10T01:23:30.530Z,70.57
2022-11-10T01:24:32.885Z,80.85
2022-11-10T01:25:35.240Z,73.37
2022-11-10T01:26:37.695Z,71.61
2022-11-10T01:27:40.055Z,43.99
2022-11-10T01:28:42.559Z,60.80
2022-11-10T01:29:44.915Z,79.39
2022-11-10T01:30:47.497Z,61.49
2022-11-10T01:31:49.940Z,54.87
2022-11-10T01:32:52.392Z,57.75
2022-11-10T01:33:54.775Z,102.77
2022-11-10T01:34:57.254Z,68.87
2022-11-10T01:35:59.714Z,67.55
2022-11-10T01:37:02.285Z,93.83
2022-11-10T01:38:04.734Z,92.05
2022-11-10T01:39:07.134Z,72.30
2022-11-10T01:40:10.039Z,67.77
2022-11-10T01:41:12.656Z,83.12
2022-11-10T01:42:15.015Z,51.85
2022-11-10T01:43:17.468Z,71.65
2022-11-10T01:44:19.873Z,61.76
2022-11-10T01:45:22.233Z,48.35
2022-11-10T01:46:24.690Z,58.58
2022-11-10T01:47:27.153Z,50.14
2022-11-10T01:48:29.609Z,64.45
2022-11-10T01:49:32.001Z,46.91
2022-11-10T01:50:34.558Z,46.03
2022-11-10T01:51:37.016Z,35.93
2022-11-10T01:52:39.375Z,71.21
2022-11-10T01:53:41.777Z,32.77
2022-11-10T01:54:44.171Z,55.51
2022-11-10T01:55:46.629Z,34.69
2022-11-10T01:56:49.295Z,65.19
2022-11-10T01:57:51.756Z,67.11
2022-11-10T01:58:54.229Z,51.67
2022-11-10T01:59:56.717Z,77.39
2022-11-10T02:00:59.414Z,50.61
2022-11-10T02:02:01.843Z,58.79
2022-11-10T02:03:04.313Z,27.39
2022-11-10T02:04:06.774Z,51.89
2022-11-10T02:05:09.271Z,54.95
2022-11-10T02:06:12.145Z,60.56
2022-11-10T02:07:14.648Z,64.69
2022-11-10T02:08:17.071Z,74.69
2022-11-10T02:09:19.543Z,50.91
2022-11-10T02:10:22.557Z,67.74
2022-11-10T02:11:25.023Z,90.89
2022-11-10T02:12:27.386Z,60.83
2022-11-10T02:13:31.020Z,80.32
2022-11-10T02:14:33.381Z,78.84
2022-11-10T02:15:35.786Z,67.51
2022-11-10T02:16:38.253Z,57.39
2022-11-10T02:17:40.747Z,71.59
2022-11-10T02:18:43.189Z,56.45
2022-11-10T02:19:45.647Z,83.68
2022-11-10T02:20:48.253Z,40.65
2022-11-10T02:21:50.715Z,47.41
2022-11-10T02:22:53.078Z,66.20
2022-11-10T02:23:55.559Z,91.15
2022-11-10T02:24:58.025Z,89.56
2022-11-10T02:26:00.540Z,69.23
2022-11-10T02:27:03.001Z,65.05
2022-11-10T02:28:05.465Z,70.39
2022-11-10T02:29:07.930Z,58.94
2022-11-10T02:30:11.707Z,65.45
2022-11-10T02:31:14.209Z,81.94
2022-11-10T02:32:16.679Z,54.73
2022-11-10T02:33:19.288Z,71.95
2022-11-10T02:34:22.022Z,106.10
2022-11-10T02:35:24.781Z,110.32
2022-11-10T02:36:27.367Z,76.85
2022-11-10T02:37:29.734Z,111.09
2022-11-10T02:38:32.212Z,76.73
2022-11-10T02:39:34.687Z,75.29
2022-11-10T02:40:37.457Z,70.36
2022-11-10T02:41:39.960Z,81.53
2022-11-10T02:42:42.435Z,112.39
2022-11-10T02:43:44.898Z,98.00
2022-11-10T02:44:47.263Z,97.95
2022-11-10T02:45:49.619Z,108.09
2022-11-10T02:46:52.214Z,112.51
2022-11-10T02:47:54.576Z,125.15
2022-11-10T02:48:56.932Z,74.72
2022-11-10T02:49:59.299Z,93.53
2022-11-10T02:51:01.966Z,95.74
2022-11-10T02:52:04.498Z,92.44
2022-11-10T02:53:06.945Z,92.16
2022-11-10T02:54:09.406Z,74.37
2022-11-10T02:55:11.875Z,73.13
2022-11-10T02:56:15.084Z,96.66
2022-11-10T02:57:17.592Z,75.21
2022-11-10T02:58:20.057Z,106.27
2022-11-10T02:59:22.424Z,71.81
2022-11-10T03:00:25.097Z,55.93
2022-11-10T03:01:27.606Z,59.29
2022-11-10T03:02:32.336Z,56.17
2022-11-10T03:03:34.438Z,47.48
2022-11-10T03:04:36.915Z,72.60
2022-11-10T03:05:39.367Z,65.03
2022-11-10T03:06:42.061Z,89.07
2022-11-10T03:07:44.524Z,84.55
2022-11-10T03:08:47.003Z,88.52
2022-11-10T03:09:49.479Z,66.73
2022-11-10T03:10:52.045Z,48.21
2022-11-10T03:11:54.510Z,93.28
2022-11-10T03:12:56.997Z,86.93
2022-11-10T03:14:01.840Z,109.57
2022-11-10T03:15:03.656Z,48.76
2022-11-10T03:16:06.629Z,64.17
2022-11-10T03:17:08.993Z,84.61
2022-11-10T03:18:11.504Z,75.88
2022-11-10T03:19:13.863Z,80.17
2022-11-10T03:20:17.058Z,83.81
2022-11-10T03:21:19.542Z,123.11
2022-11-10T03:22:22.000Z,88.89
2022-11-10T03:23:24.923Z,81.93
2022-11-10T03:24:27.724Z,78.22
2022-11-10T03:25:32.703Z,70.95
2022-11-10T03:26:35.198Z,85.21
2022-11-10T03:27:37.564Z,56.24
2022-11-10T03:28:39.968Z,69.71
2022-11-10T03:29:42.431Z,113.51
2022-11-10T03:30:45.202Z,125.53
2022-11-10T03:31:47.688Z,86.38
2022-11-10T03:32:50.050Z,80.90
2022-11-10T03:33:52.803Z,61.35
2022-11-10T03:34:55.264Z,72.32
2022-11-10T03:35:57.656Z,76.53
2022-11-10T03:37:00.347Z,84.55
2022-11-10T03:38:02.799Z,68.10
2022-11-10T03:39:05.298Z,106.59
2022-11-10T03:40:08.768Z,39.85
2022-11-10T03:41:20.189Z,55.23
2022-11-10T03:42:15.528Z,72.21
2022-11-10T03:43:17.971Z,65.37
2022-11-10T03:44:20.381Z,54.12
2022-11-10T03:45:22.760Z,71.91
2022-11-10T03:46:25.319Z,102.07
2022-11-10T03:47:27.981Z,67.59
2022-11-10T03:48:30.445Z,85.77
2022-11-10T03:49:32.953Z,77.84
2022-11-10T03:50:35.629Z,75.77
2022-11-10T03:51:38.088Z,77.70
2022-11-10T03:52:40.451Z,74.21
2022-11-10T03:53:42.916Z,55.70
2022-11-10T03:54:45.424Z,81.88
2022-11-10T03:55:47.888Z,62.16
2022-11-10T03:56:50.461Z,85.84
2022-11-10T03:57:52.828Z,58.33
2022-11-10T03:58:55.289Z,68.71
2022-11-10T03:59:57.827Z,78.72
2022-11-10T04:01:00.791Z,50.35
2022-11-10T04:02:03.279Z,57.02
2022-11-10T04:03:05.820Z,51.74
2022-11-10T04:04:08.284Z,55.18
2022-11-10T04:05:10.801Z,49.93
2022-11-10T04:06:13.567Z,68.24
2022-11-10T04:07:16.062Z,40.89
2022-11-10T04:08:18.495Z,43.75
2022-11-10T04:09:20.858Z,61.26
2022-11-10T04:10:23.658Z,67.13
2022-11-10T04:11:26.089Z,46.11
2022-11-10T04:12:28.542Z,81.31
2022-11-10T04:13:30.908Z,58.85
2022-11-10T04:14:33.269Z,68.24
2022-11-10T04:15:35.769Z,50.47
2022-11-10T04:16:38.421Z,49.75
2022-11-10T04:17:40.876Z,56.77
2022-11-10T04:18:43.236Z,78.91
2022-11-10T04:19:45.589Z,38.79
2022-11-10T04:20:48.188Z,49.24
2022-11-10T04:21:50.666Z,44.49
2022-11-10T04:22:53.127Z,88.57
2022-11-10T04:23:55.583Z,61.31
2022-11-10T04:24:57.940Z,86.91
2022-11-10T04:26:00.453Z,43.48
2022-11-10T04:27:02.900Z,84.49
2022-11-10T04:28:05.349Z,57.62
2022-11-10T04:29:07.712Z,73.60
2022-11-10T04:30:10.669Z,102.51
2022-11-10T04:31:13.048Z,70.99
2022-11-10T04:32:15.399Z,109.30
2022-11-10T04:33:17.756Z,59.39
2022-11-10T04:34:20.133Z,77.75
2022-11-10T04:35:22.489Z,76.63
2022-11-10T04:36:25.567Z,64.87
2022-11-10T04:37:28.009Z,95.66
2022-11-10T04:38:30.368Z,57.10
2022-11-10T04:39:32.726Z,86.85
2022-11-10T04:40:35.502Z,87.86
2022-11-10T04:41:38.019Z,70.63
2022-11-10T04:42:40.485Z,57.81
2022-11-10T04:43:42.844Z,94.99
2022-11-10T04:44:45.328Z,88.69
2022-11-10T04:45:47.785Z,71.58
2022-11-10T04:46:50.575Z,46.88
2022-11-10T04:47:53.037Z,98.53
2022-11-10T04:48:55.392Z,77.21
2022-11-10T04:49:57.751Z,89.69
2022-11-10T04:51:00.332Z,70.23
2022-11-10T04:52:02.951Z,62.56
2022-11-10T04:53:05.392Z,71.63
2022-11-10T04:54:07.844Z,87.37
2022-11-10T04:55:10.315Z,76.85
2022-11-10T04:56:14.570Z,65.98
2022-11-10T04:57:17.008Z,112.01
2022-11-10T04:58:19.494Z,94.12
2022-11-10T04:59:21.855Z,69.30
2022-11-10T05:00:24.610Z,70.22
2022-11-10T05:01:27.115Z,89.73
2022-11-10T05:02:29.807Z,75.35
2022-11-10T05:03:32.166Z,81.50
2022-11-10T05:04:35.662Z,132.57
2022-11-10T05:05:38.131Z,101.35
2022-11-10T05:06:40.734Z,89.35
2022-11-10T05:07:43.376Z,94.75
2022-11-10T05:08:45.742Z,79.58
2022-11-10T05:09:48.203Z,86.23
2022-11-10T05:10:51.083Z,84.49
2022-11-10T05:11:53.543Z,77.95
2022-11-10T05:12:56.053Z,59.21
2022-11-10T05:13:58.428Z,78.71
2022-11-10T05:15:00.903Z,68.11
2022-11-10T05:16:03.463Z,80.07
2022-11-10T05:17:05.934Z,65.75
2022-11-10T05:18:08.422Z,81.80
2022-11-10T05:19:10.783Z,52.92
2022-11-10T05:20:13.852Z,70.83
2022-11-10T05:21:16.214Z,88.87
2022-11-10T05:22:18.578Z,55.53
2022-11-10T05:23:21.370Z,105.47
2022-11-10T05:24:24.641Z,86.49
2022-11-10T05:25:27.023Z,80.97
2022-11-10T05:26:29.588Z,45.13
2022-11-10T05:27:31.964Z,56.21
2022-11-10T05:28:34.461Z,66.14
2022-11-10T05:29:36.925Z,91.31
2022-11-10T05:30:39.586Z,85.15
2022-11-10T05:31:41.987Z,99.67
2022-11-10T05:32:44.449Z,83.57
2022-11-10T05:33:47.041Z,122.03
2022-11-10T05:34:49.508Z,62.29
2022-11-10T05:35:51.986Z,48.51
2022-11-10T05:36:54.636Z,94.04
2022-11-10T05:37:57.098Z,107.04
2022-11-10T05:38:59.504Z,98.00
2022-11-10T05:40:01.964Z,101.13
2022-11-10T05:41:04.430Z,112.01
2022-11-10T05:42:06.889Z,80.29
2022-11-10T05:43:09.354Z,111.09
2022-11-10T05:44:11.767Z,76.36
2022-11-10T05:45:14.255Z,137.06
2022-11-10T05:46:17.222Z,105.81
2022-11-10T05:47:19.585Z,105.02
2022-11-10T05:48:22.049Z,103.01
2022-11-10T05:49:24.537Z,105.48
2022-11-10T05:50:27.318Z,121.09
2022-11-10T05:51:29.775Z,104.09
2022-11-10T05:52:32.236Z,114.75
2022-11-10T05:53:34.699Z,89.51
2022-11-10T05:54:37.124Z,108.59
2022-11-10T05:55:39.599Z,77.14
2022-11-10T05:56:42.358Z,107.85
2022-11-10T05:57:44.835Z,73.57
2022-11-10T05:58:47.295Z,71.99
2022-11-10T05:59:49.805Z,83.77
2022-11-10T06:00:52.372Z,89.75
2022-11-10T06:01:54.826Z,114.21
2022-11-10T06:02:57.192Z,101.11
2022-11-10T06:03:59.590Z,92.26
2022-11-10T06:05:02.056Z,96.08
2022-11-10T06:06:04.822Z,84.86
2022-11-10T06:07:07.246Z,79.67
2022-11-10T06:08:09.853Z,125.12
2022-11-10T06:09:12.323Z,102.06
2022-11-10T06:10:15.856Z,121.58
2022-11-10T06:11:18.217Z,121.21
2022-11-10T06:12:20.576Z,82.31
2022-11-10T06:13:23.233Z,117.97
2022-11-10T06:14:25.899Z,111.92
2022-11-10T06:15:28.465Z,78.44
2022-11-10T06:16:31.254Z,95.48
2022-11-10T06:17:33.693Z,81.30
2022-11-10T06:18:36.171Z,100.52
2022-11-10T06:19:38.631Z,106.43
2022-11-10T06:20:41.379Z,92.59
2022-11-10T06:21:43.838Z,68.46
2022-11-10T06:22:46.299Z,69.30
2022-11-10T06:23:48.653Z,79.05
2022-11-10T06:24:51.007Z,72.33
2022-11-10T06:25:53.515Z,98.67
2022-11-10T06:26:56.085Z,88.81
2022-11-10T06:27:58.542Z,58.35
2022-11-10T06:29:01.033Z,71.10
2022-11-10T06:30:03.792Z,113.77
2022-11-10T06:31:06.287Z,91.93
2022-11-10T06:32:08.651Z,61.27
2022-11-10T06:33:11.105Z,94.69
2022-11-10T06:34:13.557Z,60.29
2022-11-10T06:35:16.015Z,91.03
2022-11-10T06:36:18.924Z,81.32
2022-11-10T06:37:21.276Z,111.61
2022-11-10T06:38:23.741Z,80.53
2022-11-10T06:39:26.103Z,94.44
2022-11-10T06:40:28.564Z,87.99
2022-11-10T06:41:30.960Z,76.87
2022-11-10T06:42:33.336Z,121.54
2022-11-10T06:43:35.786Z,92.13
2022-11-10T06:44:38.245Z,122.79
2022-11-10T06:45:40.697Z,77.88
2022-11-10T06:46:43.115Z,107.35
2022-11-10T06:47:45.476Z,91.09
2022-11-10T06:48:47.930Z,68.86
2022-11-10T06:49:50.301Z,89.69
2022-11-10T06:50:52.902Z,65.70
2022-11-10T06:51:55.387Z,89.90
2022-11-10T06:52:57.868Z,75.68
2022-11-10T06:54:00.327Z,64.31
2022-11-10T06:55:02.678Z,90.67
2022-11-10T06:56:05.237Z,77.07
2022-11-10T06:57:07.660Z,64.98
2022-11-10T06:58:10.121Z,95.78
2022-11-10T06:59:12.478Z,73.25
2022-11-10T07:00:15.062Z,84.65
2022-11-10T07:01:22.147Z,68.26
2022-11-10T07:02:22.022Z,89.18
2022-11-10T07:03:24.787Z,57.21
2022-11-10T07:04:27.569Z,88.56
2022-11-10T07:05:29.929Z,113.05
2022-11-10T07:06:32.631Z,68.25
2022-11-10T07:07:35.317Z,79.63
2022-11-10T07:08:37.680Z,84.88
2022-11-10T07:09:40.038Z,92.55
2022-11-10T07:10:42.609Z,61.82
2022-11-10T07:11:44.970Z,54.73
2022-11-10T07:12:47.363Z,69.74
2022-11-10T07:13:49.716Z,63.37
2022-11-10T07:14:52.074Z,58.34
2022-11-10T07:15:54.429Z,58.61
2022-11-10T07:16:57.132Z,62.17
2022-11-10T07:17:59.520Z,48.92
2022-11-10T07:19:01.877Z,91.40
2022-11-10T07:20:04.553Z,83.43
2022-11-10T07:21:07.007Z,65.31
2022-11-10T07:22:11.254Z,54.27
2022-11-10T07:23:13.670Z,65.18
2022-11-10T07:24:16.043Z,61.68
2022-11-10T07:25:18.529Z,46.49
2022-11-10T07:26:21.164Z,48.59
2022-11-10T07:27:23.532Z,38.92
2022-11-10T07:28:28.439Z,75.31
2022-11-10T07:29:30.299Z,35.97
2022-11-10T07:30:32.762Z,46.46
2022-11-10T07:31:35.531Z,50.71
2022-11-10T07:32:38.002Z,54.30
2022-11-10T07:33:40.518Z,82.54
2022-11-10T07:34:42.911Z,52.11
2022-11-10T07:35:45.356Z,50.31
2022-11-10T07:36:48.128Z,51.16
2022-11-10T07:37:50.587Z,53.06
2022-11-10T07:38:53.115Z,76.54
2022-11-10T07:39:55.567Z,74.67
2022-11-10T07:40:58.251Z,42.35
2022-11-10T07:42:00.610Z,36.64
2022-11-10T07:43:03.069Z,47.07
2022-11-10T07:44:05.796Z,36.20
2022-11-10T07:45:08.161Z,56.93
2022-11-10T07:46:11.834Z,54.03
2022-11-10T07:47:14.219Z,55.44
2022-11-10T07:48:16.696Z,45.36
2022-11-10T07:49:19.100Z,41.64
2022-11-10T07:50:21.562Z,60.14
2022-11-10T07:51:24.028Z,49.50
2022-11-10T07:52:26.387Z,75.24
2022-11-10T07:53:28.739Z,77.18
2022-11-10T07:54:31.138Z,71.97
2022-11-10T07:55:33.497Z,59.23
2022-11-10T07:56:36.072Z,60.81
2022-11-10T07:57:38.526Z,59.09
2022-11-10T07:58:40.985Z,69.40
2022-11-10T07:59:43.377Z,49.69
2022-11-10T08:00:46.141Z,59.07
2022-11-10T08:01:48.564Z,65.90
2022-11-10T08:02:51.168Z,56.79
2022-11-10T08:03:53.622Z,53.89
2022-11-10T08:04:56.024Z,51.16
2022-11-10T08:05:58.382Z,45.25
2022-11-10T08:07:01.054Z,68.30
2022-11-10T08:08:03.599Z,57.65
2022-11-10T08:09:06.057Z,50.21
2022-11-10T08:10:09.270Z,66.62
2022-11-10T08:11:11.729Z,48.84
2022-11-10T08:12:14.197Z,51.55
2022-11-10T08:13:16.659Z,61.89
2022-11-10T08:14:19.132Z,45.71
2022-11-10T08:15:21.552Z,51.30
2022-11-10T08:16:24.115Z,57.29
2022-11-10T08:17:26.474Z,59.62
2022-11-10T08:18:34.919Z,45.48
2022-11-10T08:19:33.104Z,54.65
2022-11-10T08:20:36.036Z,49.19
2022-11-10T08:21:38.396Z,56.56
2022-11-10T08:22:40.751Z,48.89
2022-11-10T08:23:43.209Z,41.64
2022-11-10T08:24:45.573Z,44.85
2022-11-10T08:25:47.999Z,54.81
2022-11-10T08:26:50.755Z,47.21
2022-11-10T08:27:53.239Z,43.53
2022-11-10T08:28:55.672Z,46.84
2022-11-10T08:29:58.141Z,43.85
2022-11-10T08:31:05.335Z,42.33
2022-11-10T08:32:05.428Z,54.25
2022-11-10T08:33:07.900Z,53.58
2022-11-10T08:34:10.264Z,48.03
2022-11-10T08:35:12.912Z,44.46
2022-11-10T08:36:16.036Z,44.26
2022-11-10T08:37:18.404Z,54.73
2022-11-10T08:38:20.869Z,47.73
2022-11-10T08:39:38.135Z,57.95
2022-11-10T08:40:27.946Z,49.75
2022-11-10T08:41:30.424Z,48.33
2022-11-10T08:42:32.815Z,47.15
2022-11-10T08:43:35.284Z,50.59
2022-11-10T08:44:37.775Z,46.55
2022-11-10T08:45:40.154Z,48.97
2022-11-10T08:46:43.062Z,49.08
2022-11-10T08:47:45.536Z,43.83
2022-11-10T08:48:48.013Z,48.85
2022-11-10T08:49:50.477Z,45.64
2022-11-10T08:50:53.348Z,46.49
2022-11-10T08:51:55.850Z,51.93
2022-11-10T08:52:58.217Z,48.77
2022-11-10T08:54:00.678Z,41.89
2022-11-10T08:55:03.044Z,52.19
2022-11-10T08:56:05.816Z,45.22
2022-11-10T08:57:08.314Z,52.44
2022-11-10T08:58:10.785Z,52.19
2022-11-10T08:59:13.257Z,53.21
2022-11-10T09:00:16.123Z,51.29
2022-11-10T09:01:18.599Z,51.82
2022-11-10T09:02:21.099Z,50.45
2022-11-10T09:03:23.806Z,52.98
2022-11-10T09:04:26.796Z,53.12
2022-11-10T09:05:29.515Z,62.62
2022-11-10T09:06:32.270Z,61.63
2022-11-10T09:07:34.878Z,55.52
2022-11-10T09:08:37.342Z,58.01
2022-11-10T09:09:39.799Z,60.16
2022-11-10T09:10:42.574Z,59.22
2022-11-10T09:11:45.032Z,54.96
2022-11-10T09:12:47.519Z,63.24
2022-11-10T09:13:49.893Z,62.95
2022-11-10T09:14:52.365Z,64.40
2022-11-10T09:15:54.832Z,61.93
2022-11-10T09:16:57.601Z,66.80
2022-11-10T09:18:00.011Z,66.95
2022-11-10T09:19:02.475Z,68.67
2022-11-10T09:20:05.489Z,61.19
2022-11-10T09:21:08.034Z,55.78
2022-11-10T09:22:10.397Z,66.13
2022-11-10T09:23:12.891Z,57.57
2022-11-10T09:24:15.371Z,55.81
2022-11-10T09:25:17.832Z,53.33
2022-11-10T09:26:20.493Z,55.22
2022-11-10T09:27:22.960Z,49.37
2022-11-10T09:28:25.349Z,47.37
2022-11-10T09:29:27.816Z,51.65
2022-11-10T09:30:30.474Z,57.55
2022-11-10T09:31:32.841Z,48.41
2022-11-10T09:32:35.220Z,53.19
2022-11-10T09:33:37.744Z,49.52
2022-11-10T09:34:40.147Z,52.14
2022-11-10T09:35:42.615Z,51.35
2022-11-10T09:36:44.982Z,54.51
2022-11-10T09:37:47.454Z,48.42
2022-11-10T09:38:49.939Z,47.81
2022-11-10T09:39:52.401Z,49.02
2022-11-10T09:40:55.066Z,46.30
2022-11-10T09:41:57.537Z,50.10
2022-11-10T09:42:59.999Z,55.24
2022-11-10T09:44:02.499Z,47.21
2022-11-10T09:45:04.963Z,47.35
2022-11-10T09:46:08.036Z,51.12
2022-11-10T09:47:12.471Z,43.34
2022-11-10T09:48:14.792Z,52.10
2022-11-10T09:49:17.189Z,43.98
2022-11-10T09:50:19.652Z,51.52
2022-11-10T09:51:22.137Z,48.13
2022-11-10T09:52:24.591Z,49.57
2022-11-10T09:53:27.099Z,54.95
2022-11-10T09:54:29.592Z,50.09
2022-11-10T09:55:32.063Z,50.99
2022-11-10T09:56:34.729Z,47.40
2022-11-10T09:57:37.219Z,45.89
2022-11-10T09:58:39.911Z,48.96
2022-11-10T09:59:42.419Z,51.66
2022-11-10T10:00:45.083Z,49.93
2022-11-10T10:01:47.566Z,52.53
2022-11-10T10:02:50.009Z,55.18
2022-11-10T10:03:52.481Z,51.31
2022-11-10T10:04:55.186Z,47.95
2022-11-10T10:05:57.661Z,48.52
2022-11-10T10:07:10.668Z,46.52
2022-11-10T10:08:04.498Z,47.45
2022-11-10T10:09:06.969Z,45.93
2022-11-10T10:10:13.107Z,47.22
2022-11-10T10:11:14.058Z,48.05
2022-11-10T10:12:16.535Z,50.32
2022-11-10T10:13:19.000Z,51.56
2022-11-10T10:14:21.471Z,48.87
2022-11-10T10:15:25.761Z,49.10
2022-11-10T10:16:28.564Z,47.12
2022-11-10T10:17:31.024Z,46.79
2022-11-10T10:18:33.504Z,47.75
2022-11-10T10:19:35.979Z,50.63
2022-11-10T10:20:38.991Z,45.52
2022-11-10T10:21:41.498Z,40.72
2022-11-10T10:22:43.962Z,35.15
2022-11-10T10:24:08.341Z,38.75
2022-11-10T10:24:50.609Z,40.20
2022-11-10T10:25:53.103Z,33.49
2022-11-10T10:26:55.881Z,41.15
2022-11-10T10:27:58.361Z,41.85
2022-11-10T10:29:00.832Z,41.43
2022-11-10T10:30:03.597Z,38.42
2022-11-10T10:31:06.139Z,42.56
2022-11-10T10:32:08.601Z,39.57
2022-11-10T10:33:11.081Z,41.27
2022-11-10T10:34:13.534Z,40.19
2022-11-10T10:35:16.009Z,34.63
2022-11-10T10:36:18.709Z,33.64
2022-11-10T10:37:21.164Z,36.47
2022-11-10T10:38:23.907Z,33.99
2022-11-10T10:39:26.737Z,38.47
2022-11-10T10:40:29.250Z,36.32
2022-11-10T10:41:31.757Z,41.07
2022-11-10T10:42:34.126Z,35.22
2022-11-10T10:43:36.598Z,29.65
2022-11-10T10:44:39.375Z,35.28
2022-11-10T10:45:41.781Z,29.45
2022-11-10T10:46:44.439Z,30.89
2022-11-10T10:47:46.903Z,37.79
2022-11-10T10:48:53.888Z,44.41
2022-11-10T10:49:53.658Z,40.37
2022-11-10T10:50:56.321Z,43.05
2022-11-10T10:51:58.810Z,40.79
2022-11-10T10:53:01.168Z,31.87
2022-11-10T10:54:03.628Z,35.32
2022-11-10T10:55:06.087Z,33.77
2022-11-10T10:56:09.356Z,37.56
2022-11-10T10:57:11.749Z,31.45
2022-11-10T10:58:14.251Z,30.25
2022-11-10T10:59:16.633Z,26.79
2022-11-10T11:00:19.391Z,30.18
2022-11-10T11:01:21.785Z,30.14
2022-11-10T11:02:24.486Z,33.07
2022-11-10T11:03:26.941Z,27.13
2022-11-10T11:04:29.327Z,33.47
2022-11-10T11:05:31.776Z,28.41
2022-11-10T11:06:34.619Z,37.06
2022-11-10T11:07:37.249Z,32.61
2022-11-10T11:08:39.707Z,45.48
2022-11-10T11:09:42.166Z,37.65
2022-11-10T11:10:44.865Z,40.65
2022-11-10T11:11:47.333Z,37.69
2022-11-10T11:12:49.860Z,39.43
2022-11-10T11:13:52.293Z,31.84
2022-11-10T11:14:54.657Z,34.87
2022-11-10T11:15:57.025Z,47.21
2022-11-10T11:16:59.758Z,40.91
2022-11-10T11:18:02.399Z,33.89
2022-11-10T11:19:04.762Z,41.73
2022-11-10T11:20:07.616Z,41.84
2022-11-10T11:21:10.404Z,41.89
2022-11-10T11:22:13.366Z,36.17
2022-11-10T11:23:15.759Z,35.47
2022-11-10T11:24:18.124Z,32.94
2022-11-10T11:25:20.589Z,33.35
2022-11-10T11:26:23.064Z,35.93
2022-11-10T11:27:25.518Z,39.32
2022-11-10T11:28:27.918Z,39.07
2022-11-10T11:29:30.382Z,36.53
2022-11-10T11:30:33.154Z,42.75
2022-11-10T11:31:41.687Z,36.83
2022-11-10T11:32:39.900Z,32.83
2022-11-10T11:33:42.395Z,39.01
2022-11-10T11:34:44.865Z,43.53
2022-11-10T11:35:47.319Z,39.69
2022-11-10T11:36:49.783Z,43.38
2022-11-10T11:37:52.143Z,42.93
2022-11-10T11:38:54.561Z,38.25
2022-11-10T11:39:56.924Z,30.56
2022-11-10T11:40:59.494Z,34.06
2022-11-10T11:42:01.852Z,35.74
2022-11-10T11:43:04.303Z,31.87
2022-11-10T11:44:06.680Z,39.05
2022-11-10T11:45:09.060Z,29.85
2022-11-10T11:46:11.625Z,33.07
2022-11-10T11:47:13.989Z,35.55
2022-11-10T11:48:16.440Z,37.59
2022-11-10T11:49:18.824Z,40.06
2022-11-10T11:50:21.419Z,41.59
2022-11-10T11:51:23.872Z,46.85
2022-11-10T11:52:26.240Z,34.25
2022-11-10T11:53:41.125Z,35.50
2022-11-10T11:54:43.768Z,34.91
2022-11-10T11:55:46.229Z,30.52
2022-11-10T11:56:48.793Z,32.00
2022-11-10T11:57:51.260Z,33.90
2022-11-10T11:58:53.741Z,39.02
2022-11-10T11:59:56.239Z,32.67
2022-11-10T12:00:59.102Z,36.56
2022-11-10T12:02:01.475Z,31.45
2022-11-10T12:03:04.325Z,35.49
2022-11-10T12:04:06.975Z,32.85
2022-11-10T12:05:09.470Z,33.93
2022-11-10T12:06:12.590Z,37.01
2022-11-10T12:07:15.098Z,29.15
2022-11-10T12:08:17.512Z,42.05
2022-11-10T12:09:19.869Z,39.51
2022-11-10T12:10:22.602Z,41.19
2022-11-10T12:11:25.059Z,32.71
2022-11-10T12:12:27.413Z,30.77
2022-11-10T12:13:29.767Z,34.61
2022-11-10T12:14:32.130Z,37.93
2022-11-10T12:15:34.690Z,48.52
2022-11-10T12:16:37.310Z,33.91
2022-11-10T12:17:39.773Z,38.18
2022-11-10T12:18:47.125Z,33.00
2022-11-10T12:19:46.412Z,32.52
2022-11-10T12:20:48.996Z,34.25
2022-11-10T12:21:51.456Z,39.21
2022-11-10T12:22:53.811Z,41.25
2022-11-10T12:23:56.169Z,39.52
2022-11-10T12:24:58.646Z,40.15
2022-11-10T12:26:01.127Z,47.70
2022-11-10T12:27:03.492Z,51.33
2022-11-10T12:28:05.848Z,36.75
2022-11-10T12:29:08.319Z,36.64
2022-11-10T12:30:11.382Z,48.92
2022-11-10T12:31:13.776Z,41.31
2022-11-10T12:32:16.254Z,43.09
2022-11-10T12:33:18.709Z,41.58
2022-11-10T12:34:21.176Z,37.55
2022-11-10T12:35:23.648Z,48.80
2022-11-10T12:36:26.260Z,32.04
2022-11-10T12:37:28.625Z,37.41
2022-11-10T12:38:31.077Z,35.35
2022-11-10T12:39:33.545Z,47.17
2022-11-10T12:40:41.421Z,51.54
2022-11-10T12:41:40.607Z,57.66
2022-11-10T12:42:42.966Z,39.63
2022-11-10T12:43:45.439Z,44.53
2022-11-10T12:44:47.791Z,36.61
2022-11-10T12:45:50.157Z,49.12
2022-11-10T12:46:52.651Z,40.97
2022-11-10T12:47:55.028Z,45.15
2022-11-10T12:48:57.480Z,42.75
2022-11-10T12:49:59.958Z,46.47
2022-11-10T12:51:02.742Z,40.74
2022-11-10T12:52:59.581Z,51.14
2022-11-10T12:54:01.941Z,66.12
2022-11-10T12:55:04.406Z,55.76
2022-11-10T12:56:07.377Z,44.02
2022-11-10T12:57:09.841Z,40.13
2022-11-10T12:58:12.249Z,39.89
2022-11-10T12:59:14.713Z,34.17
2022-11-10T13:00:21.264Z,39.96
2022-11-10T13:01:22.444Z,41.46
2022-11-10T13:02:24.952Z,39.61
2022-11-10T13:03:27.360Z,32.93
2022-11-10T13:04:29.823Z,36.54
2022-11-10T13:05:32.182Z,41.00
2022-11-10T13:06:35.093Z,33.95
2022-11-10T13:07:37.530Z,44.17
2022-11-10T13:08:40.029Z,48.46
2022-11-10T13:09:42.407Z,42.06
2022-11-10T13:10:45.058Z,41.00
2022-11-10T13:11:47.427Z,48.66
2022-11-10T13:12:49.892Z,51.80
2022-11-10T13:13:56.660Z,52.89
2022-11-10T13:14:56.585Z,50.55
2022-11-10T13:15:59.064Z,46.47
2022-11-10T13:17:01.733Z,49.41
2022-11-10T13:18:04.201Z,37.45
2022-11-10T13:19:06.696Z,34.57
2022-11-10T13:20:30.369Z,38.21
2022-11-10T13:21:14.127Z,37.12
2022-11-10T13:22:16.565Z,39.52
2022-11-10T13:23:19.037Z,39.75
2022-11-10T13:24:21.565Z,31.91